greek

WEATHER INFORMATION

english


LGTT 250430Z 01015G25KT 9999 FEW018 BKN025 11/06 Q1020 RMK OVC070
TAF LGTT 250400Z 2506/2515 03016KT 9999 FEW018 SCT025 PROB30 TEMPO 2506/2512 5000 RA SCT018 BKN025 TEMPO 2506/2515 03018G28KT

 Print LGTT local weather
 EMY AVIATION
 EMY LGTT
 Forecast LGTT
 EMY LGMG
 EMY LGEL
 EMY LGTG
 EMY LGAV
 EMY LGAT
 Latest METAR Reports (OGIMET)
 Latest TAF Reports (OGIMET)
 Greece Forecast
 www.windyty.com
 www.meteo.gr
 SAT 24h
 UK Met Office
 www.kifissiameteo.gr
 forecast.uoa.gr
 www.ntua.gr/weather/
 www.autorouter.eu/gramet
 https://www.aviationweather.gov/sigmet/

Call 210-3533689 to get aviation-weather info for Greece.